KFIN

Flagler Executive Airport

Palm Coast, Florida, USA
METAR KFIN 212250Z 00000KT 4SM -RA BKN025 23/22 A3009
Observed Flight Rules
Aug-21 @ 22:50 UTC (57 minutes ago) Marginal Visual Flight Rules
Visibility Clouds Conditions
4 miles
  • Broken at 2,500' AGL
  • Light Rain
Temperatures Readings
Current 23°C / 73°F
Dewpoint 22°C / 72°F
Humidity 94%
Altimeter 30.09" Hg
Pressure 1019 hPa
Elevation 10
METAR KFIN 212250Z 00000KT 4SM -RA BKN025 23/22 A3009
Observed Flight Rules
Aug-21 @ 22:50 UTC
(57 minutes ago)
MVFR
Clouds
  • Broken at 2,500' AGL
Conditions
  • Light Rain
Temperature Dewpoint
23°C / 73°F 22°C / 72°F
Humidity Altimeter Pressure
94% 30.09" Hg 1019 hPa